sensor_id;sensor_type;location;lat;lon;timestamp;P1;durP1;ratioP1;P2;durP2;ratioP2
83282;SDS011;73190;50.780;5.658;2024-03-07T00:01:04;27.30;;;17.73;;
83282;SDS011;73190;50.780;5.658;2024-03-07T00:03:33;26.52;;;18.35;;
83282;SDS011;73190;50.780;5.658;2024-03-07T00:06:00;23.55;;;15.68;;
83282;SDS011;73190;50.780;5.658;2024-03-07T00:08:31;19.67;;;13.28;;
83282;SDS011;73190;50.780;5.658;2024-03-07T00:10:58;27.02;;;13.13;;
83282;SDS011;73190;50.780;5.658;2024-03-07T00:13:27;22.45;;;13.62;;
83282;SDS011;73190;50.780;5.658;2024-03-07T00:15:54;19.37;;;13.08;;
83282;SDS011;73190;50.780;5.658;2024-03-07T00:18:22;26.55;;;14.78;;
83282;SDS011;73190;50.780;5.658;2024-03-07T00:20:50;26.40;;;16.05;;
83282;SDS011;73190;50.780;5.658;2024-03-07T00:23:18;28.87;;;17.00;;
83282;SDS011;73190;50.780;5.658;2024-03-07T00:25:45;30.55;;;19.57;;
83282;SDS011;73190;50.780;5.658;2024-03-07T00:28:16;23.70;;;15.75;;
83282;SDS011;73190;50.780;5.658;2024-03-07T00:30:44;30.37;;;18.55;;
83282;SDS011;73190;50.780;5.658;2024-03-07T00:33:13;26.55;;;16.97;;
83282;SDS011;73190;50.780;5.658;2024-03-07T00:35:41;34.90;;;22.70;;
83282;SDS011;73190;50.780;5.658;2024-03-07T00:38:10;44.23;;;24.63;;
83282;SDS011;73190;50.780;5.658;2024-03-07T00:40:37;39.98;;;23.62;;
83282;SDS011;73190;50.780;5.658;2024-03-07T00:43:05;38.60;;;22.70;;
83282;SDS011;73190;50.780;5.658;2024-03-07T00:45:33;36.33;;;23.10;;
83282;SDS011;73190;50.780;5.658;2024-03-07T00:48:00;30.90;;;20.92;;
83282;SDS011;73190;50.780;5.658;2024-03-07T00:50:29;31.35;;;21.90;;
83282;SDS011;73190;50.780;5.658;2024-03-07T00:52:58;35.03;;;22.73;;
83282;SDS011;73190;50.780;5.658;2024-03-07T00:55:25;41.30;;;26.02;;
83282;SDS011;73190;50.780;5.658;2024-03-07T00:57:53;43.75;;;24.98;;
83282;SDS011;73190;50.780;5.658;2024-03-07T01:00:24;48.42;;;27.25;;
83282;SDS011;73190;50.780;5.658;2024-03-07T01:02:53;44.10;;;27.63;;
83282;SDS011;73190;50.780;5.658;2024-03-07T01:05:22;43.17;;;28.15;;
83282;SDS011;73190;50.780;5.658;2024-03-07T01:07:50;45.65;;;29.15;;
83282;SDS011;73190;50.780;5.658;2024-03-07T01:10:18;45.73;;;27.50;;
83282;SDS011;73190;50.780;5.658;2024-03-07T01:12:46;49.00;;;32.13;;
83282;SDS011;73190;50.780;5.658;2024-03-07T01:15:15;44.90;;;30.20;;
83282;SDS011;73190;50.780;5.658;2024-03-07T01:17:43;42.27;;;29.70;;
83282;SDS011;73190;50.780;5.658;2024-03-07T01:20:10;42.30;;;29.23;;
83282;SDS011;73190;50.780;5.658;2024-03-07T01:22:40;45.30;;;30.80;;
83282;SDS011;73190;50.780;5.658;2024-03-07T01:25:09;44.23;;;28.55;;
83282;SDS011;73190;50.780;5.658;2024-03-07T01:30:06;52.05;;;32.20;;
83282;SDS011;73190;50.780;5.658;2024-03-07T01:32:34;52.53;;;32.42;;
83282;SDS011;73190;50.780;5.658;2024-03-07T01:35:01;48.17;;;33.35;;
83282;SDS011;73190;50.780;5.658;2024-03-07T01:37:29;51.30;;;32.17;;
83282;SDS011;73190;50.780;5.658;2024-03-07T01:39:56;54.08;;;33.95;;
83282;SDS011;73190;50.780;5.658;2024-03-07T01:42:24;53.63;;;33.15;;
83282;SDS011;73190;50.780;5.658;2024-03-07T01:44:51;50.00;;;30.95;;
83282;SDS011;73190;50.780;5.658;2024-03-07T01:47:19;48.08;;;30.88;;
83282;SDS011;73190;50.780;5.658;2024-03-07T01:49:48;50.23;;;30.77;;
83282;SDS011;73190;50.780;5.658;2024-03-07T01:52:16;47.05;;;30.12;;
83282;SDS011;73190;50.780;5.658;2024-03-07T01:54:44;43.28;;;29.75;;
83282;SDS011;73190;50.780;5.658;2024-03-07T01:57:23;43.33;;;28.23;;
83282;SDS011;73190;50.780;5.658;2024-03-07T01:59:54;46.10;;;29.87;;
83282;SDS011;73190;50.780;5.658;2024-03-07T02:02:24;44.60;;;30.08;;
83282;SDS011;73190;50.780;5.658;2024-03-07T02:04:51;47.58;;;28.95;;
83282;SDS011;73190;50.780;5.658;2024-03-07T02:07:19;46.80;;;30.92;;
83282;SDS011;73190;50.780;5.658;2024-03-07T02:09:50;50.20;;;31.15;;
83282;SDS011;73190;50.780;5.658;2024-03-07T02:12:26;48.52;;;30.77;;
83282;SDS011;73190;50.780;5.658;2024-03-07T02:14:58;44.15;;;28.35;;
83282;SDS011;73190;50.780;5.658;2024-03-07T02:17:26;44.83;;;27.95;;
83282;SDS011;73190;50.780;5.658;2024-03-07T02:19:54;45.70;;;29.90;;
83282;SDS011;73190;50.780;5.658;2024-03-07T02:22:22;42.08;;;28.27;;
83282;SDS011;73190;50.780;5.658;2024-03-07T02:24:52;42.80;;;27.58;;
83282;SDS011;73190;50.780;5.658;2024-03-07T02:27:19;39.58;;;27.15;;
83282;SDS011;73190;50.780;5.658;2024-03-07T02:29:48;49.45;;;28.27;;
83282;SDS011;73190;50.780;5.658;2024-03-07T02:32:17;49.05;;;32.08;;
83282;SDS011;73190;50.780;5.658;2024-03-07T02:34:44;44.08;;;27.98;;
83282;SDS011;73190;50.780;5.658;2024-03-07T02:37:12;44.30;;;28.83;;
83282;SDS011;73190;50.780;5.658;2024-03-07T02:39:40;41.02;;;26.87;;
83282;SDS011;73190;50.780;5.658;2024-03-07T02:42:07;47.93;;;28.30;;
83282;SDS011;73190;50.780;5.658;2024-03-07T02:44:35;48.55;;;30.05;;
83282;SDS011;73190;50.780;5.658;2024-03-07T02:47:04;47.13;;;30.00;;
83282;SDS011;73190;50.780;5.658;2024-03-07T02:49:33;45.08;;;28.55;;
83282;SDS011;73190;50.780;5.658;2024-03-07T02:52:00;50.00;;;30.88;;
83282;SDS011;73190;50.780;5.658;2024-03-07T02:54:28;41.58;;;25.05;;
83282;SDS011;73190;50.780;5.658;2024-03-07T02:56:55;51.53;;;28.90;;
83282;SDS011;73190;50.780;5.658;2024-03-07T02:59:23;43.35;;;27.30;;
83282;SDS011;73190;50.780;5.658;2024-03-07T03:01:50;48.70;;;29.63;;
83282;SDS011;73190;50.780;5.658;2024-03-07T03:04:18;52.05;;;31.33;;
83282;SDS011;73190;50.780;5.658;2024-03-07T03:06:45;43.48;;;28.02;;
83282;SDS011;73190;50.780;5.658;2024-03-07T03:09:13;49.23;;;28.80;;
83282;SDS011;73190;50.780;5.658;2024-03-07T03:11:43;50.70;;;29.47;;
83282;SDS011;73190;50.780;5.658;2024-03-07T03:14:11;52.10;;;30.23;;
83282;SDS011;73190;50.780;5.658;2024-03-07T03:16:42;57.73;;;30.57;;
83282;SDS011;73190;50.780;5.658;2024-03-07T03:19:10;50.90;;;28.40;;
83282;SDS011;73190;50.780;5.658;2024-03-07T03:21:38;52.17;;;30.48;;
83282;SDS011;73190;50.780;5.658;2024-03-07T03:24:06;55.33;;;31.85;;
83282;SDS011;73190;50.780;5.658;2024-03-07T03:26:34;54.58;;;31.17;;
83282;SDS011;73190;50.780;5.658;2024-03-07T03:29:01;50.25;;;29.45;;
83282;SDS011;73190;50.780;5.658;2024-03-07T03:31:29;55.80;;;31.05;;
83282;SDS011;73190;50.780;5.658;2024-03-07T03:33:57;50.70;;;30.82;;
83282;SDS011;73190;50.780;5.658;2024-03-07T03:36:24;53.02;;;32.42;;
83282;SDS011;73190;50.780;5.658;2024-03-07T03:38:52;52.80;;;30.55;;
83282;SDS011;73190;50.780;5.658;2024-03-07T03:41:19;52.65;;;31.97;;
83282;SDS011;73190;50.780;5.658;2024-03-07T03:43:48;49.40;;;29.40;;
83282;SDS011;73190;50.780;5.658;2024-03-07T03:46:15;50.30;;;31.00;;
83282;SDS011;73190;50.780;5.658;2024-03-07T03:48:43;51.37;;;31.68;;
83282;SDS011;73190;50.780;5.658;2024-03-07T03:51:11;54.35;;;31.82;;
83282;SDS011;73190;50.780;5.658;2024-03-07T03:53:38;50.60;;;31.07;;
83282;SDS011;73190;50.780;5.658;2024-03-07T03:56:09;49.38;;;31.55;;
83282;SDS011;73190;50.780;5.658;2024-03-07T03:58:43;50.20;;;31.42;;
83282;SDS011;73190;50.780;5.658;2024-03-07T04:03:38;56.18;;;31.12;;
83282;SDS011;73190;50.780;5.658;2024-03-07T04:06:07;54.60;;;31.62;;
83282;SDS011;73190;50.780;5.658;2024-03-07T04:08:35;49.63;;;29.77;;
83282;SDS011;73190;50.780;5.658;2024-03-07T04:11:02;51.18;;;31.85;;
83282;SDS011;73190;50.780;5.658;2024-03-07T04:13:33;51.50;;;31.75;;
83282;SDS011;73190;50.780;5.658;2024-03-07T04:16:00;57.00;;;32.17;;
83282;SDS011;73190;50.780;5.658;2024-03-07T04:18:28;51.60;;;31.20;;
83282;SDS011;73190;50.780;5.658;2024-03-07T04:20:56;49.03;;;29.12;;
83282;SDS011;73190;50.780;5.658;2024-03-07T04:23:23;50.45;;;29.85;;
83282;SDS011;73190;50.780;5.658;2024-03-07T04:25:51;48.92;;;29.40;;
83282;SDS011;73190;50.780;5.658;2024-03-07T04:28:19;46.98;;;28.95;;
83282;SDS011;73190;50.780;5.658;2024-03-07T04:30:48;45.78;;;28.75;;
83282;SDS011;73190;50.780;5.658;2024-03-07T04:33:15;50.55;;;29.20;;
83282;SDS011;73190;50.780;5.658;2024-03-07T04:35:45;46.70;;;31.12;;
83282;SDS011;73190;50.780;5.658;2024-03-07T04:38:13;51.08;;;30.08;;
83282;SDS011;73190;50.780;5.658;2024-03-07T04:40:43;50.08;;;30.20;;
83282;SDS011;73190;50.780;5.658;2024-03-07T04:43:12;51.10;;;30.25;;
83282;SDS011;73190;50.780;5.658;2024-03-07T04:45:41;55.25;;;32.48;;
83282;SDS011;73190;50.780;5.658;2024-03-07T04:48:09;50.25;;;31.20;;
83282;SDS011;73190;50.780;5.658;2024-03-07T04:50:38;50.58;;;30.80;;
83282;SDS011;73190;50.780;5.658;2024-03-07T04:53:05;53.50;;;30.62;;
83282;SDS011;73190;50.780;5.658;2024-03-07T04:55:33;57.38;;;31.25;;
83282;SDS011;73190;50.780;5.658;2024-03-07T04:58:00;54.83;;;31.70;;
83282;SDS011;73190;50.780;5.658;2024-03-07T05:00:28;60.00;;;33.10;;
83282;SDS011;73190;50.780;5.658;2024-03-07T05:02:56;56.20;;;30.35;;
83282;SDS011;73190;50.780;5.658;2024-03-07T05:05:24;54.20;;;30.15;;
83282;SDS011;73190;50.780;5.658;2024-03-07T05:07:52;52.43;;;30.23;;
83282;SDS011;73190;50.780;5.658;2024-03-07T05:10:21;62.80;;;33.55;;
83282;SDS011;73190;50.780;5.658;2024-03-07T05:12:49;59.58;;;30.23;;
83282;SDS011;73190;50.780;5.658;2024-03-07T05:15:17;51.83;;;28.17;;
83282;SDS011;73190;50.780;5.658;2024-03-07T05:17:46;50.75;;;30.30;;
83282;SDS011;73190;50.780;5.658;2024-03-07T05:20:13;51.77;;;28.52;;
83282;SDS011;73190;50.780;5.658;2024-03-07T05:22:42;49.90;;;28.92;;
83282;SDS011;73190;50.780;5.658;2024-03-07T05:25:15;53.23;;;29.07;;
83282;SDS011;73190;50.780;5.658;2024-03-07T05:27:45;53.83;;;29.72;;
83282;SDS011;73190;50.780;5.658;2024-03-07T05:30:13;50.40;;;28.92;;
83282;SDS011;73190;50.780;5.658;2024-03-07T05:32:41;44.65;;;27.10;;
83282;SDS011;73190;50.780;5.658;2024-03-07T05:35:10;54.77;;;31.62;;
83282;SDS011;73190;50.780;5.658;2024-03-07T05:37:37;52.48;;;29.05;;
83282;SDS011;73190;50.780;5.658;2024-03-07T05:40:07;53.93;;;31.97;;
83282;SDS011;73190;50.780;5.658;2024-03-07T05:42:36;50.28;;;29.72;;
83282;SDS011;73190;50.780;5.658;2024-03-07T05:45:05;55.95;;;30.48;;
83282;SDS011;73190;50.780;5.658;2024-03-07T05:47:33;49.10;;;29.50;;
83282;SDS011;73190;50.780;5.658;2024-03-07T05:50:03;57.53;;;31.55;;
83282;SDS011;73190;50.780;5.658;2024-03-07T05:52:32;56.92;;;31.42;;
83282;SDS011;73190;50.780;5.658;2024-03-07T05:55:01;57.10;;;31.60;;
83282;SDS011;73190;50.780;5.658;2024-03-07T05:57:31;51.48;;;29.60;;
83282;SDS011;73190;50.780;5.658;2024-03-07T05:59:58;51.13;;;29.20;;
83282;SDS011;73190;50.780;5.658;2024-03-07T06:02:27;51.55;;;29.37;;
83282;SDS011;73190;50.780;5.658;2024-03-07T06:04:54;57.45;;;29.35;;
83282;SDS011;73190;50.780;5.658;2024-03-07T06:07:22;49.50;;;27.32;;
83282;SDS011;73190;50.780;5.658;2024-03-07T06:09:49;57.20;;;29.00;;
83282;SDS011;73190;50.780;5.658;2024-03-07T06:12:17;52.35;;;27.40;;
83282;SDS011;73190;50.780;5.658;2024-03-07T06:14:44;49.33;;;27.50;;
83282;SDS011;73190;50.780;5.658;2024-03-07T06:17:13;47.23;;;27.37;;
83282;SDS011;73190;50.780;5.658;2024-03-07T06:19:41;48.55;;;26.85;;
83282;SDS011;73190;50.780;5.658;2024-03-07T06:22:08;48.83;;;28.20;;
83282;SDS011;73190;50.780;5.658;2024-03-07T06:24:37;44.60;;;27.67;;
83282;SDS011;73190;50.780;5.658;2024-03-07T06:27:06;48.17;;;26.12;;
83282;SDS011;73190;50.780;5.658;2024-03-07T06:29:36;49.13;;;29.27;;
83282;SDS011;73190;50.780;5.658;2024-03-07T06:32:04;55.73;;;29.00;;
83282;SDS011;73190;50.780;5.658;2024-03-07T06:34:32;55.70;;;30.30;;
83282;SDS011;73190;50.780;5.658;2024-03-07T06:36:59;48.15;;;28.30;;
83282;SDS011;73190;50.780;5.658;2024-03-07T06:39:28;57.43;;;29.25;;
83282;SDS011;73190;50.780;5.658;2024-03-07T06:41:56;62.00;;;29.50;;
83282;SDS011;73190;50.780;5.658;2024-03-07T06:44:23;56.63;;;30.82;;
83282;SDS011;73190;50.780;5.658;2024-03-07T06:46:52;49.95;;;28.98;;
83282;SDS011;73190;50.780;5.658;2024-03-07T06:49:20;60.38;;;33.28;;
83282;SDS011;73190;50.780;5.658;2024-03-07T06:51:47;60.90;;;32.55;;
83282;SDS011;73190;50.780;5.658;2024-03-07T06:54:15;58.15;;;34.15;;
83282;SDS011;73190;50.780;5.658;2024-03-07T06:56:42;63.83;;;36.55;;
83282;SDS011;73190;50.780;5.658;2024-03-07T06:59:11;71.50;;;39.13;;
83282;SDS011;73190;50.780;5.658;2024-03-07T07:01:40;76.92;;;47.05;;
83282;SDS011;73190;50.780;5.658;2024-03-07T07:04:08;97.62;;;58.10;;
83282;SDS011;73190;50.780;5.658;2024-03-07T07:06:38;80.07;;;48.00;;
83282;SDS011;73190;50.780;5.658;2024-03-07T07:09:08;81.72;;;47.30;;
83282;SDS011;73190;50.780;5.658;2024-03-07T07:11:36;71.07;;;41.70;;
83282;SDS011;73190;50.780;5.658;2024-03-07T07:14:03;65.67;;;38.85;;
83282;SDS011;73190;50.780;5.658;2024-03-07T07:16:31;71.95;;;40.05;;
83282;SDS011;73190;50.780;5.658;2024-03-07T07:19:00;68.72;;;37.78;;
83282;SDS011;73190;50.780;5.658;2024-03-07T07:21:28;63.83;;;38.28;;
83282;SDS011;73190;50.780;5.658;2024-03-07T07:23:55;67.65;;;38.65;;
83282;SDS011;73190;50.780;5.658;2024-03-07T07:26:25;67.50;;;37.42;;
83282;SDS011;73190;50.780;5.658;2024-03-07T07:28:52;66.95;;;38.67;;
83282;SDS011;73190;50.780;5.658;2024-03-07T07:31:20;64.03;;;38.05;;
83282;SDS011;73190;50.780;5.658;2024-03-07T07:33:47;70.15;;;39.45;;
83282;SDS011;73190;50.780;5.658;2024-03-07T07:36:16;68.83;;;39.00;;
83282;SDS011;73190;50.780;5.658;2024-03-07T07:38:45;64.37;;;37.63;;
83282;SDS011;73190;50.780;5.658;2024-03-07T07:41:12;68.30;;;40.20;;
83282;SDS011;73190;50.780;5.658;2024-03-07T07:43:40;66.87;;;39.75;;
83282;SDS011;73190;50.780;5.658;2024-03-07T07:46:08;75.40;;;40.63;;
83282;SDS011;73190;50.780;5.658;2024-03-07T07:48:36;74.35;;;38.90;;
83282;SDS011;73190;50.780;5.658;2024-03-07T07:51:04;70.17;;;39.53;;
83282;SDS011;73190;50.780;5.658;2024-03-07T07:53:34;81.28;;;42.33;;
83282;SDS011;73190;50.780;5.658;2024-03-07T07:56:02;90.17;;;46.95;;
83282;SDS011;73190;50.780;5.658;2024-03-07T07:58:30;86.70;;;46.63;;
83282;SDS011;73190;50.780;5.658;2024-03-07T08:00:58;72.25;;;41.98;;
83282;SDS011;73190;50.780;5.658;2024-03-07T08:03:26;75.80;;;45.28;;
83282;SDS011;73190;50.780;5.658;2024-03-07T08:05:53;71.53;;;42.13;;
83282;SDS011;73190;50.780;5.658;2024-03-07T08:08:21;79.65;;;46.63;;
83282;SDS011;73190;50.780;5.658;2024-03-07T08:10:49;60.98;;;38.88;;
83282;SDS011;73190;50.780;5.658;2024-03-07T08:13:18;60.38;;;36.95;;
83282;SDS011;73190;50.780;5.658;2024-03-07T08:15:45;60.60;;;36.88;;
83282;SDS011;73190;50.780;5.658;2024-03-07T08:18:13;57.30;;;35.98;;
83282;SDS011;73190;50.780;5.658;2024-03-07T08:23:10;56.37;;;34.95;;
83282;SDS011;73190;50.780;5.658;2024-03-07T08:25:39;55.88;;;34.65;;
83282;SDS011;73190;50.780;5.658;2024-03-07T08:28:06;60.55;;;35.13;;
83282;SDS011;73190;50.780;5.658;2024-03-07T08:30:34;54.58;;;33.98;;
83282;SDS011;73190;50.780;5.658;2024-03-07T08:33:02;57.60;;;34.73;;
83282;SDS011;73190;50.780;5.658;2024-03-07T08:35:30;56.25;;;35.43;;
83282;SDS011;73190;50.780;5.658;2024-03-07T08:37:58;53.90;;;34.27;;
83282;SDS011;73190;50.780;5.658;2024-03-07T08:40:27;51.40;;;33.33;;
83282;SDS011;73190;50.780;5.658;2024-03-07T08:43:00;53.55;;;34.83;;
83282;SDS011;73190;50.780;5.658;2024-03-07T08:45:28;53.98;;;34.08;;
83282;SDS011;73190;50.780;5.658;2024-03-07T08:47:58;52.43;;;33.73;;
83282;SDS011;73190;50.780;5.658;2024-03-07T08:50:26;54.98;;;34.27;;
83282;SDS011;73190;50.780;5.658;2024-03-07T08:52:54;51.48;;;34.23;;
83282;SDS011;73190;50.780;5.658;2024-03-07T08:55:22;51.83;;;33.73;;
83282;SDS011;73190;50.780;5.658;2024-03-07T08:57:51;54.15;;;33.90;;
83282;SDS011;73190;50.780;5.658;2024-03-07T09:00:19;53.90;;;35.08;;
83282;SDS011;73190;50.780;5.658;2024-03-07T09:02:56;53.02;;;35.68;;
83282;SDS011;73190;50.780;5.658;2024-03-07T09:05:25;53.37;;;33.60;;
83282;SDS011;73190;50.780;5.658;2024-03-07T09:07:53;49.10;;;33.42;;
83282;SDS011;73190;50.780;5.658;2024-03-07T09:10:21;51.08;;;34.03;;
83282;SDS011;73190;50.780;5.658;2024-03-07T09:12:51;56.20;;;33.20;;
83282;SDS011;73190;50.780;5.658;2024-03-07T09:15:19;56.10;;;34.30;;
83282;SDS011;73190;50.780;5.658;2024-03-07T09:17:50;46.13;;;31.77;;
83282;SDS011;73190;50.780;5.658;2024-03-07T09:20:18;49.30;;;31.05;;
83282;SDS011;73190;50.780;5.658;2024-03-07T09:22:48;48.58;;;32.65;;
83282;SDS011;73190;50.780;5.658;2024-03-07T09:25:17;48.90;;;32.58;;
83282;SDS011;73190;50.780;5.658;2024-03-07T09:27:47;57.00;;;34.88;;
83282;SDS011;73190;50.780;5.658;2024-03-07T09:30:15;47.13;;;31.70;;
83282;SDS011;73190;50.780;5.658;2024-03-07T09:32:44;46.63;;;32.60;;
83282;SDS011;73190;50.780;5.658;2024-03-07T09:35:14;47.95;;;34.08;;
83282;SDS011;73190;50.780;5.658;2024-03-07T09:37:43;47.70;;;31.50;;
83282;SDS011;73190;50.780;5.658;2024-03-07T09:40:11;46.75;;;30.60;;
83282;SDS011;73190;50.780;5.658;2024-03-07T09:42:47;46.92;;;31.50;;
83282;SDS011;73190;50.780;5.658;2024-03-07T09:45:14;49.05;;;33.08;;
83282;SDS011;73190;50.780;5.658;2024-03-07T09:47:45;44.90;;;31.15;;
83282;SDS011;73190;50.780;5.658;2024-03-07T09:50:17;46.00;;;31.40;;
83282;SDS011;73190;50.780;5.658;2024-03-07T09:52:48;45.40;;;30.90;;
83282;SDS011;73190;50.780;5.658;2024-03-07T09:55:17;44.53;;;30.63;;
83282;SDS011;73190;50.780;5.658;2024-03-07T09:57:47;40.00;;;29.23;;
83282;SDS011;73190;50.780;5.658;2024-03-07T10:00:22;37.05;;;27.35;;
83282;SDS011;73190;50.780;5.658;2024-03-07T10:02:53;41.83;;;28.30;;
83282;SDS011;73190;50.780;5.658;2024-03-07T10:05:22;36.70;;;26.37;;
83282;SDS011;73190;50.780;5.658;2024-03-07T10:07:52;36.08;;;27.82;;
83282;SDS011;73190;50.780;5.658;2024-03-07T10:10:20;34.03;;;26.65;;
83282;SDS011;73190;50.780;5.658;2024-03-07T10:12:48;34.03;;;25.90;;
83282;SDS011;73190;50.780;5.658;2024-03-07T10:15:18;33.78;;;25.15;;
83282;SDS011;73190;50.780;5.658;2024-03-07T10:17:45;32.73;;;25.37;;
83282;SDS011;73190;50.780;5.658;2024-03-07T10:20:16;31.60;;;24.55;;
83282;SDS011;73190;50.780;5.658;2024-03-07T10:22:46;29.20;;;22.45;;
83282;SDS011;73190;50.780;5.658;2024-03-07T10:25:16;27.42;;;21.95;;
83282;SDS011;73190;50.780;5.658;2024-03-07T10:27:47;28.80;;;23.02;;
83282;SDS011;73190;50.780;5.658;2024-03-07T10:30:14;30.35;;;23.40;;
83282;SDS011;73190;50.780;5.658;2024-03-07T10:32:45;28.70;;;22.17;;
83282;SDS011;73190;50.780;5.658;2024-03-07T10:35:12;26.42;;;22.37;;
83282;SDS011;73190;50.780;5.658;2024-03-07T10:37:41;27.98;;;22.50;;
83282;SDS011;73190;50.780;5.658;2024-03-07T10:40:11;29.70;;;23.42;;
83282;SDS011;73190;50.780;5.658;2024-03-07T10:42:46;26.77;;;20.92;;
83282;SDS011;73190;50.780;5.658;2024-03-07T10:45:18;24.27;;;21.10;;
83282;SDS011;73190;50.780;5.658;2024-03-07T10:47:53;26.62;;;21.62;;
83282;SDS011;73190;50.780;5.658;2024-03-07T10:50:43;26.82;;;21.40;;
83282;SDS011;73190;50.780;5.658;2024-03-07T10:53:15;25.43;;;19.70;;
83282;SDS011;73190;50.780;5.658;2024-03-07T10:56:18;22.65;;;18.50;;
83282;SDS011;73190;50.780;5.658;2024-03-07T10:58:37;26.35;;;17.73;;
83282;SDS011;73190;50.780;5.658;2024-03-07T11:01:15;23.02;;;19.23;;
83282;SDS011;73190;50.780;5.658;2024-03-07T11:03:46;24.43;;;18.35;;
83282;SDS011;73190;50.780;5.658;2024-03-07T11:06:15;21.07;;;18.37;;
83282;SDS011;73190;50.780;5.658;2024-03-07T11:08:49;21.35;;;18.02;;
83282;SDS011;73190;50.780;5.658;2024-03-07T11:11:13;26.03;;;19.10;;
83282;SDS011;73190;50.780;5.658;2024-03-07T11:13:41;20.48;;;18.07;;
83282;SDS011;73190;50.780;5.658;2024-03-07T11:16:10;21.37;;;17.75;;
83282;SDS011;73190;50.780;5.658;2024-03-07T11:18:40;21.15;;;18.15;;
83282;SDS011;73190;50.780;5.658;2024-03-07T11:21:39;21.45;;;17.70;;
83282;SDS011;73190;50.780;5.658;2024-03-07T11:23:39;21.48;;;18.02;;
83282;SDS011;73190;50.780;5.658;2024-03-07T11:26:10;20.65;;;17.60;;
83282;SDS011;73190;50.780;5.658;2024-03-07T11:28:40;19.98;;;17.20;;
83282;SDS011;73190;50.780;5.658;2024-03-07T11:31:09;19.95;;;16.85;;
83282;SDS011;73190;50.780;5.658;2024-03-07T11:38:47;19.67;;;17.57;;
83282;SDS011;73190;50.780;5.658;2024-03-07T11:41:14;18.75;;;16.75;;
83282;SDS011;73190;50.780;5.658;2024-03-07T11:43:45;21.37;;;17.73;;
83282;SDS011;73190;50.780;5.658;2024-03-07T11:46:13;19.80;;;17.30;;
83282;SDS011;73190;50.780;5.658;2024-03-07T11:48:42;19.83;;;17.00;;
83282;SDS011;73190;50.780;5.658;2024-03-07T11:51:13;19.55;;;17.10;;
83282;SDS011;73190;50.780;5.658;2024-03-07T11:53:43;18.05;;;16.07;;
83282;SDS011;73190;50.780;5.658;2024-03-07T11:56:12;19.37;;;16.67;;
83282;SDS011;73190;50.780;5.658;2024-03-07T11:58:43;18.85;;;15.75;;
83282;SDS011;73190;50.780;5.658;2024-03-07T12:01:14;20.25;;;16.32;;
83282;SDS011;73190;50.780;5.658;2024-03-07T12:03:44;17.95;;;15.93;;
83282;SDS011;73190;50.780;5.658;2024-03-07T12:06:13;17.82;;;15.30;;
83282;SDS011;73190;50.780;5.658;2024-03-07T12:08:50;18.52;;;15.75;;
83282;SDS011;73190;50.780;5.658;2024-03-07T12:11:14;17.60;;;15.63;;
83282;SDS011;73190;50.780;5.658;2024-03-07T12:13:42;18.57;;;15.68;;
83282;SDS011;73190;50.780;5.658;2024-03-07T12:16:17;18.45;;;15.85;;
83282;SDS011;73190;50.780;5.658;2024-03-07T12:18:45;18.37;;;14.83;;
83282;SDS011;73190;50.780;5.658;2024-03-07T12:21:14;17.93;;;14.77;;
83282;SDS011;73190;50.780;5.658;2024-03-07T12:23:42;17.57;;;13.90;;
83282;SDS011;73190;50.780;5.658;2024-03-07T12:26:10;18.77;;;14.80;;
83282;SDS011;73190;50.780;5.658;2024-03-07T12:28:39;17.10;;;15.20;;
83282;SDS011;73190;50.780;5.658;2024-03-07T12:31:08;18.03;;;15.80;;
83282;SDS011;73190;50.780;5.658;2024-03-07T12:33:38;17.33;;;15.40;;
83282;SDS011;73190;50.780;5.658;2024-03-07T12:36:07;18.27;;;16.32;;
83282;SDS011;73190;50.780;5.658;2024-03-07T12:38:37;23.13;;;15.90;;
83282;SDS011;73190;50.780;5.658;2024-03-07T12:41:11;20.68;;;16.10;;
83282;SDS011;73190;50.780;5.658;2024-03-07T12:43:42;18.62;;;16.10;;
83282;SDS011;73190;50.780;5.658;2024-03-07T12:46:11;18.30;;;15.15;;
83282;SDS011;73190;50.780;5.658;2024-03-07T12:48:41;19.00;;;16.00;;
83282;SDS011;73190;50.780;5.658;2024-03-07T12:51:10;20.43;;;16.60;;
83282;SDS011;73190;50.780;5.658;2024-03-07T12:53:40;22.00;;;17.27;;
83282;SDS011;73190;50.780;5.658;2024-03-07T12:56:08;19.73;;;17.10;;
83282;SDS011;73190;50.780;5.658;2024-03-07T12:58:36;21.95;;;17.17;;
83282;SDS011;73190;50.780;5.658;2024-03-07T13:01:03;20.20;;;16.17;;
83282;SDS011;73190;50.780;5.658;2024-03-07T13:03:31;18.42;;;15.63;;
83282;SDS011;73190;50.780;5.658;2024-03-07T13:06:01;21.77;;;16.05;;
83282;SDS011;73190;50.780;5.658;2024-03-07T13:08:30;18.98;;;15.25;;
83282;SDS011;73190;50.780;5.658;2024-03-07T13:10:59;21.37;;;15.80;;
83282;SDS011;73190;50.780;5.658;2024-03-07T13:13:26;19.73;;;15.83;;
83282;SDS011;73190;50.780;5.658;2024-03-07T13:15:54;18.70;;;16.45;;
83282;SDS011;73190;50.780;5.658;2024-03-07T13:18:22;19.75;;;16.15;;
83282;SDS011;73190;50.780;5.658;2024-03-07T13:20:49;18.32;;;14.78;;
83282;SDS011;73190;50.780;5.658;2024-03-07T13:23:18;18.87;;;15.68;;
83282;SDS011;73190;50.780;5.658;2024-03-07T13:25:45;18.10;;;15.43;;
83282;SDS011;73190;50.780;5.658;2024-03-07T13:28:14;18.55;;;15.48;;
83282;SDS011;73190;50.780;5.658;2024-03-07T13:30:44;19.23;;;15.38;;
83282;SDS011;73190;50.780;5.658;2024-03-07T13:33:13;18.90;;;14.53;;
83282;SDS011;73190;50.780;5.658;2024-03-07T13:35:41;18.02;;;15.20;;
83282;SDS011;73190;50.780;5.658;2024-03-07T13:38:09;19.75;;;15.80;;
83282;SDS011;73190;50.780;5.658;2024-03-07T13:40:36;18.00;;;14.85;;
83282;SDS011;73190;50.780;5.658;2024-03-07T13:43:07;19.07;;;15.60;;
83282;SDS011;73190;50.780;5.658;2024-03-07T13:45:35;19.07;;;15.38;;
83282;SDS011;73190;50.780;5.658;2024-03-07T13:48:08;19.85;;;15.78;;
83282;SDS011;73190;50.780;5.658;2024-03-07T13:50:38;19.55;;;16.67;;
83282;SDS011;73190;50.780;5.658;2024-03-07T13:53:10;20.10;;;14.90;;
83282;SDS011;73190;50.780;5.658;2024-03-07T14:09:30;19.32;;;14.80;;
83282;SDS011;73190;50.780;5.658;2024-03-07T14:12:06;21.97;;;14.28;;
83282;SDS011;73190;50.780;5.658;2024-03-07T14:23:24;19.25;;;14.93;;
83282;SDS011;73190;50.780;5.658;2024-03-07T14:29:28;17.52;;;14.23;;
83282;SDS011;73190;50.780;5.658;2024-03-07T14:31:53;17.42;;;13.13;;
83282;SDS011;73190;50.780;5.658;2024-03-07T14:34:37;16.55;;;13.53;;
83282;SDS011;73190;50.780;5.658;2024-03-07T14:37:31;18.62;;;14.18;;
83282;SDS011;73190;50.780;5.658;2024-03-07T14:39:55;17.95;;;14.85;;
83282;SDS011;73190;50.780;5.658;2024-03-07T14:42:23;17.95;;;13.88;;
83282;SDS011;73190;50.780;5.658;2024-03-07T14:44:51;16.05;;;13.32;;
83282;SDS011;73190;50.780;5.658;2024-03-07T14:47:19;15.18;;;13.00;;
83282;SDS011;73190;50.780;5.658;2024-03-07T14:49:47;16.77;;;13.68;;
83282;SDS011;73190;50.780;5.658;2024-03-07T14:52:14;15.83;;;13.15;;
83282;SDS011;73190;50.780;5.658;2024-03-07T14:54:42;14.83;;;11.68;;
83282;SDS011;73190;50.780;5.658;2024-03-07T14:57:11;17.37;;;12.33;;
83282;SDS011;73190;50.780;5.658;2024-03-07T14:59:39;18.82;;;13.38;;
83282;SDS011;73190;50.780;5.658;2024-03-07T15:02:06;16.73;;;13.53;;
83282;SDS011;73190;50.780;5.658;2024-03-07T15:04:36;16.67;;;12.85;;
83282;SDS011;73190;50.780;5.658;2024-03-07T15:07:05;15.32;;;11.50;;
83282;SDS011;73190;50.780;5.658;2024-03-07T15:09:35;15.23;;;12.40;;